This is the latest recevied weather packets stored in our database for station/object JA7ZQY-10. If no packets are shown the sender has not sent any weather packets the latest 10 day(s).
| Time | Temp. | Humidity | Pressure | Rain* | Wind** | Luminosity | Snow |
|---|---|---|---|---|---|---|---|
| 1777593156 | 12.78° C | 62% | 1011.4 hPa | 0 mm | - | - | - |
| 1777592557 | 12.78° C | 61% | 1011.6 hPa | 0 mm | - | - | - |
| 1777591955 | 12.78° C | 60% | 1011.8 hPa | 0 mm | - | - | - |
| 1777591357 | 13.33° C | 61% | 1012.2 hPa | 0 mm | - | - | - |
| 1777590755 | 12.78° C | 62% | 1012.2 hPa | 0 mm | - | - | - |
| 1777590156 | 12.78° C | 63% | 1012.6 hPa | 0 mm | - | - | - |
| 1777589555 | 12.22° C | 70% | 1012.6 hPa | 0 mm | - | - | - |
| 1777588956 | 11.67° C | 68% | 1012.4 hPa | 0 mm | - | - | - |
| 1777588357 | 11.11° C | 64% | 1012.7 hPa | 0 mm | - | - | - |
| 1777587756 | 11.67° C | 61% | 1013.1 hPa | 0 mm | - | - | - |
| 1777587157 | 12.22° C | 60% | 1013.4 hPa | 0 mm | - | - | - |
| 1777586556 | 13.33° C | 55% | 1013.7 hPa | 0 mm | - | - | - |
| 1777585956 | 13.33° C | 55% | 1013.8 hPa | 0 mm | - | - | - |
| 1777585356 | 12.22° C | 63% | 1013.8 hPa | 0 mm | - | - | - |
| 1777584755 | 11.11° C | 64% | 1014.3 hPa | 0 mm | - | - | - |
| 1777584155 | 10.56° C | 65% | 1014.2 hPa | 0 mm | - | - | - |
| 1777583556 | 10° C | 67% | 1014.4 hPa | 0 mm | - | - | - |
| 1777582957 | 8.89° C | 67% | 1014.7 hPa | 0 mm | - | - | - |
| 1777582356 | 8.89° C | 70% | 1014.8 hPa | 0 mm | - | - | - |
| 1777581754 | 8.33° C | 71% | 1015.4 hPa | 0 mm | - | - | - |
| 1777581155 | 7.78° C | 72% | 1015.7 hPa | 0 mm | - | - | - |
| 1777580554 | 6.67° C | 78% | 1015.7 hPa | 0 mm | - | - | - |
| 1777579955 | 6.67° C | 78% | 1016 hPa | 0 mm | - | - | - |
| 1777579355 | 6.67° C | 77% | 1016.2 hPa | 0 mm | - | - | - |
| 1777578754 | 6.11° C | 76% | 1015.8 hPa | 0 mm | - | - | - |
* Rain latest hour (hover to see other rain measurements)
** Current wind speed in m/s (hover to see current wind gust speed)